Aliquippa, Pennsylvania
Current Conditions -  °F | °C
As of 4:51 AM on Saturday 01 Nov 2014 (Local Time) from KPIT Reporting Station
Overcast Overcast  
Wind Chill: 36°   Ceiling: 2500
Heat Index: 41°   Visibility: 7mi
Dew Point: 39°   Wind: 8mph
Humidity: 93%   Direction: 20°NNE
Pressure: 29.89"   Gusts: NA
Location:  40.62°N, 80.24°W
Report Text: KPIT 010851Z 02007KT 7SM SCT007 OVC025 05/04 A2989 RMK AO2 DZE51 SLP136 P0001 60002 T00500039 51005
Loading
Personal Weather Stations






























Interactive Weather Map
Tropical Storm Tracking
New forecast layout! Learn more

10-Day Weather Forecast

Advertisements
Track Severe Weather on mobile